My Little Violet — ZCPE7 — position and weather

sailwx.info

Track history (hours):
 
Tides and Currents Weather Stations Pressure Air Temp Water Temp Dewpoint Dewpoint Depression Visibility Wind Speed Wind Dir Waves Ship Positions

My Little Violet

Last reported at 2016-Jul-28 02:34 UTC. Time now 2016-Jul-28 02:57 UTC.
Position N 38°15' E 015°39'.

Length 45 m; draft 2.9 m.

Type: Pleasure craft. MMSI: 319496000.

Date/timePositionNaut miles runAvg speedWind from/ knotsBaromVisibWave heightAir tempDewpointWater temp
2016-Jul-28 02:34N 38°15' E 015°39'1010.3
2016-Jul-28 01:33N 38°21' E 015°27'1514.6
2016-Jul-28 00:34N 38°21' E 015°09'1414.0
2016-Jul-27 23:33N 38°22' E 014°51'5713.8
2016-Jul-27 19:25N 38°41' E 013°42'1214.1
2016-Jul-27 18:34N 38°45' E 013°28'1413.7
2016-Jul-27 17:33N 38°51' E 013°12'6913.8
2016-Jul-27 12:33N 39°18' E 011°50'1414.1
2016-Jul-27 11:34N 39°23' E 011°33'26512.4
2016-Jul-26 14:07N 42°21' E 007°13'813.0
2016-Jul-26 13:32N 42°26' E 007°05'2812.8
2016-Jul-26 11:21N 42°42' E 006°34'  
2016-Jul-18 06:22N 43°05' E 005°56'  
Track history (hours):
 
Tides and Currents Weather Stations Pressure Air Temp Water Temp Dewpoint Dewpoint Depression Visibility Wind Speed Wind Dir Waves Ship Positions

My Little Violet

Last reported at 2016-Jul-28 02:34 UTC. Time now 2016-Jul-28 02:57 UTC.
Position N 38°15' E 015°39'.

Length 45 m; draft 2.9 m.

Type: Pleasure craft. MMSI: 319496000.

Date/timePositionNaut miles runAvg speedWind from/ knotsBaromVisibWave heightAir tempDewpointWater temp
2016-Jul-28 02:34N 38°15' E 015°39'1010.3
2016-Jul-28 01:33N 38°21' E 015°27'1514.6
2016-Jul-28 00:34N 38°21' E 015°09'1414.0
2016-Jul-27 23:33N 38°22' E 014°51'5713.8
2016-Jul-27 19:25N 38°41' E 013°42'1214.1
2016-Jul-27 18:34N 38°45' E 013°28'1413.7
2016-Jul-27 17:33N 38°51' E 013°12'6913.8
2016-Jul-27 12:33N 39°18' E 011°50'1414.1
2016-Jul-27 11:34N 39°23' E 011°33'26512.4
2016-Jul-26 14:07N 42°21' E 007°13'813.0
2016-Jul-26 13:32N 42°26' E 007°05'2812.8
2016-Jul-26 11:21N 42°42' E 006°34'  
2016-Jul-18 06:22N 43°05' E 005°56'  

Dump ship's entire track history